Time;durP1;ratioP1;P1;durP2;ratioP2;P2;SDS_P1;SDS_P2;PMS_P1;PMS_P2;Temp;Humidity;BMP_temperature;BMP_pressure;BME280_temperature;BME280_humidity;BME280_pressure;Samples;Min_cycle;Max_cycle;Signal;HPM_P1;HPM_P2
2023/05/02 00:01:22;;;;;;;4.03;2.37;;;9.60;99.90;;;;;;5051670;28;20446;-71
2023/05/02 00:03:51;;;;;;;4.07;2.10;;;9.60;99.90;;;;;;5051743;28;20508;-71
2023/05/02 00:06:17;;;;;;;4.23;2.60;;;9.60;99.90;;;;;;5052627;28;20454;-71
2023/05/02 00:08:44;;;;;;;4.10;2.30;;;9.60;99.90;;;;;;5052052;28;20473;-71
2023/05/02 00:11:11;;;;;;;4.47;3.13;;;9.60;99.90;;;;;;5052502;28;20446;-71
2023/05/02 00:13:38;;;;;;;3.20;2.30;;;9.50;99.90;;;;;;5052169;28;20459;-71
2023/05/02 00:16:05;;;;;;;4.30;2.40;;;9.50;99.90;;;;;;5052291;28;20462;-71
2023/05/02 00:18:32;;;;;;;5.70;2.77;;;9.40;99.90;;;;;;5052677;28;20504;-71
2023/05/02 00:21:01;;;;;;;5.13;2.40;;;9.30;99.90;;;;;;5052070;28;20443;-71
2023/05/02 00:23:27;;;;;;;3.93;2.73;;;9.30;99.90;;;;;;5052334;28;20837;-71
2023/05/02 00:25:54;;;;;;;4.20;2.40;;;9.30;99.90;;;;;;5051777;28;20804;-71
2023/05/02 00:28:21;;;;;;;2.90;1.93;;;9.30;99.90;;;;;;5052276;28;20533;-71
2023/05/02 00:30:48;;;;;;;4.17;2.63;;;9.20;99.90;;;;;;5050252;28;20458;-71
2023/05/02 00:33:15;;;;;;;4.07;2.13;;;9.20;99.90;;;;;;5052155;28;20451;-71
2023/05/02 00:35:42;;;;;;;4.07;2.23;;;9.10;99.90;;;;;;5050957;28;20484;-71
2023/05/02 00:38:10;;;;;;;3.33;1.73;;;9.00;99.90;;;;;;5051812;28;20450;-71
2023/05/02 00:40:45;;;;;;;4.83;2.70;;;9.10;99.90;;;;;;5051144;28;20446;-71
2023/05/02 00:43:12;;;;;;;3.80;1.90;;;9.00;99.90;;;;;;5051596;28;20450;-71
2023/05/02 00:45:40;;;;;;;3.20;2.37;;;9.00;99.90;;;;;;5050307;28;20963;-70
2023/05/02 00:48:07;;;;;;;3.50;2.30;;;9.00;99.90;;;;;;5051311;28;20970;-71
2023/05/02 00:50:37;;;;;;;3.50;2.40;;;9.10;99.90;;;;;;5050566;28;20542;-71
2023/05/02 00:53:04;;;;;;;4.97;2.23;;;9.20;99.90;;;;;;5050796;28;20520;-71
2023/05/02 00:55:33;;;;;;;3.73;2.37;;;9.30;99.90;;;;;;5051421;28;20835;-71
2023/05/02 00:58:01;;;;;;;3.40;2.10;;;9.50;99.90;;;;;;5050975;28;20450;-71
2023/05/02 01:00:36;;;;;;;4.87;2.83;;;9.30;99.90;;;;;;5050784;28;20453;-71
2023/05/02 01:03:12;;;;;;;4.00;2.80;;;9.20;99.90;;;;;;5049774;28;20503;-71
2023/05/02 01:05:48;;;;;;;3.13;2.13;;;9.50;99.90;;;;;;5049772;28;20442;-70
2023/05/02 01:08:26;;;;;;;2.80;2.20;;;9.30;99.90;;;;;;5050535;28;20446;-71
2023/05/02 01:11:03;;;;;;;5.20;2.20;;;9.10;99.90;;;;;;5049451;28;20446;-71
2023/05/02 01:13:34;;;;;;;2.80;2.10;;;8.90;99.90;;;;;;5051477;28;20445;-71
2023/05/02 01:16:03;;;;;;;2.23;1.40;;;8.80;99.90;;;;;;5051029;28;20443;-71
2023/05/02 01:18:35;;;;;;;4.40;2.20;;;8.90;99.90;;;;;;5051287;28;20454;-72
2023/05/02 01:21:06;;;;;;;4.50;2.50;;;8.90;99.90;;;;;;5050568;28;20457;-71
2023/05/02 01:23:44;;;;;;;4.13;1.97;;;9.00;99.90;;;;;;5049431;28;20537;-71
2023/05/02 01:26:19;;;;;;;4.97;2.27;;;9.00;99.90;;;;;;5050101;28;20789;-71
2023/05/02 01:28:58;;;;;;;3.50;2.00;;;9.40;99.90;;;;;;5050009;28;20492;-68
2023/05/02 01:31:26;;;;;;;3.67;2.47;;;9.40;99.90;;;;;;5040576;28;20442;-71
2023/05/02 01:33:54;;;;;;;3.17;2.07;;;9.30;99.90;;;;;;5049952;28;20878;-71
2023/05/02 01:36:25;;;;;;;3.50;2.10;;;9.40;99.90;;;;;;5050991;28;20871;-71
2023/05/02 01:38:54;;;;;;;3.30;2.37;;;9.60;99.90;;;;;;5050086;28;20488;-71
2023/05/02 01:41:22;;;;;;;3.47;2.00;;;9.60;99.90;;;;;;5050194;28;20947;-71
2023/05/02 01:43:49;;;;;;;2.50;1.63;;;9.50;99.90;;;;;;5050139;28;20480;-71
2023/05/02 01:46:20;;;;;;;2.40;1.53;;;9.60;99.90;;;;;;5042819;28;20446;-71
2023/05/02 01:48:48;;;;;;;3.23;1.63;;;9.60;99.90;;;;;;5049753;28;20435;-71
2023/05/02 01:51:17;;;;;;;3.40;2.17;;;9.50;99.90;;;;;;5049948;28;20446;-71
2023/05/02 01:53:46;;;;;;;3.13;2.00;;;9.10;99.90;;;;;;5036515;28;20458;-71
2023/05/02 01:56:15;;;;;;;2.70;1.90;;;9.10;99.90;;;;;;5050777;28;20442;-71
2023/05/02 01:58:43;;;;;;;2.80;2.20;;;9.10;99.90;;;;;;5050132;28;20465;-71
2023/05/02 02:01:11;;;;;;;3.90;2.23;;;9.10;99.90;;;;;;5049747;28;20486;-71
2023/05/02 02:03:39;;;;;;;4.33;2.10;;;9.00;99.90;;;;;;5049530;28;20935;-70
2023/05/02 02:06:07;;;;;;;3.50;2.93;;;9.00;99.90;;;;;;5049943;28;20818;-70
2023/05/02 02:08:34;;;;;;;5.40;2.20;;;;;;;;;;5050256;28;20451;-70
2023/05/02 02:11:04;;;;;;;2.80;1.70;;;;;;;;;;5049829;28;20461;-70
2023/05/02 02:13:35;;;;;;;2.87;1.80;;;;;;;;;;5053178;28;20454;-71
2023/05/02 02:16:04;;;;;;;4.20;2.30;;;;;;;;;;5054140;28;20945;-71
2023/05/02 02:18:36;;;;;;;3.33;2.40;;;;;;;;;;5054671;28;20454;-70
2023/05/02 02:21:07;;;;;;;3.90;2.50;;;;;;;;;;5053949;28;20911;-71
2023/05/02 02:23:35;;;;;;;3.80;2.43;;;;;;;;;;5053981;28;20454;-69
2023/05/02 02:26:04;;;;;;;3.00;1.53;;;9.10;99.90;;;;;;5054440;28;20817;-71
2023/05/02 02:28:31;;;;;;;2.70;1.73;;;8.40;99.90;;;;;;5054374;28;20469;-70
2023/05/02 02:30:58;;;;;;;2.40;1.37;;;8.40;99.90;;;;;;5053582;28;20450;-70
2023/05/02 02:33:28;;;;;;;3.57;1.70;;;;;;;;;;5054137;28;20446;-70
2023/05/02 02:35:59;;;;;;;2.53;1.50;;;;;;;;;;5053384;28;20442;-70
2023/05/02 02:38:32;;;;;;;3.33;1.70;;;;;;;;;;5053828;28;20931;-70
2023/05/02 02:41:02;;;;;;;2.70;1.77;;;;;;;;;;5053652;28;21001;-70
2023/05/02 02:43:34;;;;;;;2.83;2.30;;;;;;;;;;5053751;28;20868;-70
2023/05/02 02:46:12;;;;;;;5.87;2.07;;;;;;;;;;5053719;28;20958;-71
2023/05/02 02:48:44;;;;;;;3.33;1.93;;;;;;;;;;5053156;28;20450;-70
2023/05/02 02:51:14;;;;;;;3.10;1.83;;;;;;;;;;5053210;28;20511;-70
2023/05/02 02:53:48;;;;;;;4.00;2.10;;;;;;;;;;5053013;28;20486;-70
2023/05/02 02:56:16;;;;;;;4.70;2.20;;;;;;;;;;5053409;28;20445;-70
2023/05/02 02:58:48;;;;;;;3.30;2.00;;;;;;;;;;5052511;28;20458;-70
2023/05/02 03:01:19;;;;;;;4.20;2.27;;;;;;;;;;5052759;28;20441;-70
2023/05/02 03:03:48;;;;;;;3.33;2.10;;;;;;;;;;5052286;28;20989;-70
2023/05/02 03:06:15;;;;;;;4.60;2.40;;;;;;;;;;5052614;28;20838;-70
2023/05/02 03:08:43;;;;;;;3.90;2.57;;;;;;;;;;5052562;28;20448;-70
2023/05/02 03:11:11;;;;;;;2.93;2.30;;;;;;;;;;5052303;28;20450;-70
2023/05/02 03:13:39;;;;;;;2.90;2.07;;;;;;;;;;5052277;28;20451;-70
2023/05/02 03:16:27;;;;;;;5.43;2.67;;;;;;;;;;5050741;28;20462;-70
2023/05/02 03:18:54;;;;;;;2.73;1.40;;;;;;;;;;5052726;28;20538;-70
2023/05/02 03:21:21;;;;;;;3.40;2.60;;;;;;;;;;5052788;28;20811;-71
2023/05/02 03:23:48;;;;;;;3.53;2.40;;;;;;;;;;5051887;28;20810;-70
2023/05/02 03:26:17;;;;;;;3.87;2.77;;;;;;;;;;5053052;28;20442;-70
2023/05/02 03:28:45;;;;;;;3.70;2.00;;;;;;;;;;5052659;28;20446;-70
2023/05/02 03:31:12;;;;;;;3.53;2.20;;;;;;;;;;5051628;28;20461;-70
2023/05/02 03:33:39;;;;;;;5.50;2.60;;;;;;;;;;5052691;28;20446;-70
2023/05/02 03:36:07;;;;;;;2.97;1.60;;;;;;;;;;5053234;28;20470;-70
2023/05/02 03:38:34;;;;;;;3.30;2.20;;;;;;;;;;5052736;28;20454;-70
2023/05/02 03:41:01;;;;;;;3.60;2.57;;;;;;;;;;5052946;28;20442;-71
2023/05/02 03:43:30;;;;;;;2.40;1.93;;;;;;;;;;5053237;28;20435;-70
2023/05/02 03:45:57;;;;;;;3.30;1.57;;;;;;;;;;5052386;28;20486;-70
2023/05/02 03:48:24;;;;;;;3.03;2.13;;;;;;;;;;5052875;28;20438;-71
2023/05/02 03:50:51;;;;;;;3.00;2.20;;;;;;;;;;5052043;28;20505;-70
2023/05/02 03:53:18;;;;;;;5.53;3.20;;;;;;;;;;5052766;28;20450;-70
2023/05/02 03:55:46;;;;;;;4.20;2.20;;;;;;;;;;5052440;28;20478;-71
2023/05/02 03:58:13;;;;;;;3.80;2.20;;;;;;;;;;5052595;28;20493;-71
2023/05/02 04:00:41;;;;;;;3.73;2.17;;;;;;;;;;5051835;28;20443;-70
2023/05/02 04:03:09;;;;;;;2.50;1.90;;;;;;;;;;5052385;28;20461;-70
2023/05/02 04:05:36;;;;;;;3.97;2.50;;;;;;;;;;5052049;28;20482;-70
2023/05/02 04:08:03;;;;;;;2.87;1.80;;;;;;;;;;5052648;28;20508;-70
2023/05/02 04:10:30;;;;;;;3.40;1.97;;;;;;;;;;5052309;28;20451;-70
2023/05/02 04:12:57;;;;;;;4.10;2.90;;;;;;;;;;5051597;28;20961;-71
2023/05/02 04:15:24;;;;;;;3.73;2.00;;;;;;;;;;5052327;28;20753;-72
2023/05/02 04:17:53;;;;;;;3.17;2.27;;;;;;;;;;5051639;28;20482;-71
2023/05/02 04:20:20;;;;;;;3.80;1.60;;;;;;;;;;5052354;28;20482;-71
2023/05/02 04:22:49;;;;;;;3.00;1.80;;;;;;;;;;5051618;28;20446;-71
2023/05/02 04:25:16;;;;;;;3.93;2.43;;;;;;;;;;5051818;28;20565;-71
2023/05/02 04:27:43;;;;;;;3.17;1.83;;;;;;;;;;5051513;28;20446;-71
2023/05/02 04:30:10;;;;;;;3.10;2.03;;;;;;;;;;5051499;28;20457;-71
2023/05/02 04:32:37;;;;;;;4.47;2.50;;;;;;;;;;5039940;28;20932;-70
2023/05/02 04:35:07;;;;;;;3.30;2.10;;;;;;;;;;5052232;28;20446;-71
2023/05/02 04:37:34;;;;;;;2.80;2.10;;;;;;;;;;5050313;28;20516;-70
2023/05/02 04:40:02;;;;;;;4.73;2.37;;;;;;;;;;5052025;28;20490;-71
2023/05/02 04:42:29;;;;;;;6.57;2.57;;;;;;;;;;5060232;28;20527;-71
2023/05/02 04:44:56;;;;;;;2.30;1.87;;;;;;;;;;5055198;28;20486;-72
2023/05/02 04:47:23;;;;;;;3.60;2.50;;;;;;;;;;5052817;28;20832;-71
2023/05/02 04:49:50;;;;;;;4.00;1.63;;;;;;;;;;5050848;28;20451;-71
2023/05/02 04:52:19;;;;;;;2.93;1.90;;;;;;;;;;5051268;28;20455;-71
2023/05/02 04:54:46;;;;;;;7.00;2.50;;;;;;;;;;5050977;28;20480;-70
2023/05/02 04:57:13;;;;;;;5.50;2.90;;;;;;;;;;5050921;28;20460;-70
2023/05/02 04:59:40;;;;;;;3.00;2.20;;;;;;;;;;5050855;28;20533;-70
2023/05/02 05:02:07;;;;;;;3.90;2.23;;;;;;;;;;5050493;28;20481;-70
2023/05/02 05:04:35;;;;;;;4.90;3.03;;;;;;;;;;5058304;28;20484;-71
2023/05/02 05:07:03;;;;;;;3.27;2.13;;;;;;;;;;5051347;28;20560;-70
2023/05/02 05:09:31;;;;;;;3.60;2.23;;;;;;;;;;5051429;28;20476;-70
2023/05/02 05:11:58;;;;;;;3.20;2.40;;;;;;;;;;5050657;28;20457;-70
2023/05/02 05:14:25;;;;;;;4.17;2.50;;;;;;;;;;5050981;28;20454;-71
2023/05/02 05:16:53;;;;;;;5.10;2.87;;;;;;;;;;5050319;28;20553;-70
2023/05/02 05:19:20;;;;;;;9.10;3.20;;;;;;;;;;5051082;28;20469;-69
2023/05/02 05:21:47;;;;;;;2.60;2.10;;;;;;;;;;5049999;28;20439;-70
2023/05/02 05:24:14;;;;;;;3.90;2.73;;;;;;;;;;5050709;28;20514;-68
2023/05/02 05:26:42;;;;;;;3.97;2.53;;;;;;;;;;5050526;28;20486;-68
2023/05/02 05:29:09;;;;;;;4.47;2.77;;;;;;;;;;5045367;28;20450;-70
2023/05/02 05:31:37;;;;;;;3.40;1.97;;;;;;;;;;5055544;28;20497;-71
2023/05/02 05:34:04;;;;;;;3.57;2.50;;;;;;;;;;5049882;28;20504;-68
2023/05/02 05:36:31;;;;;;;6.30;3.50;;;8.40;99.90;;;;;;5050030;28;20528;-68
2023/05/02 05:38:58;;;;;;;3.80;2.17;;;10.60;99.90;;;;;;5048169;28;20454;-67
2023/05/02 05:41:24;;;;;;;3.33;2.73;;;10.80;99.90;;;;;;5050271;28;20454;-68
2023/05/02 05:43:52;;;;;;;4.53;2.80;;;10.80;99.90;;;;;;5048917;28;20450;-68
2023/05/02 05:46:19;;;;;;;4.93;3.50;;;10.90;99.90;;;;;;5049556;28;20559;-67
2023/05/02 05:48:46;;;;;;;3.77;2.70;;;11.00;99.90;;;;;;5048801;28;20800;-68
2023/05/02 05:51:13;;;;;;;3.97;2.80;;;11.20;99.90;;;;;;5050391;28;20471;-68
2023/05/02 05:53:40;;;;;;;3.20;2.50;;;11.30;99.90;;;;;;5050273;28;20497;-67
2023/05/02 05:56:10;;;;;;;3.70;2.53;;;11.40;99.90;;;;;;5050090;28;20799;-67
2023/05/02 05:58:37;;;;;;;3.87;2.77;;;11.50;99.90;;;;;;5048976;28;20446;-67
2023/05/02 06:01:05;;;;;;;4.07;2.70;;;11.60;99.90;;;;;;5043368;28;20446;-68
2023/05/02 06:03:32;;;;;;;6.73;3.67;;;11.60;99.90;;;;;;5050347;28;20783;-68
2023/05/02 06:05:59;;;;;;;3.73;3.17;;;11.70;99.90;;;;;;5050461;28;20478;-68
2023/05/02 06:08:26;;;;;;;4.60;3.33;;;11.70;99.90;;;;;;5049870;28;20450;-68
2023/05/02 06:10:53;;;;;;;5.47;3.63;;;11.80;99.90;;;;;;5049591;28;21092;-67
2023/05/02 06:13:20;;;;;;;8.37;3.43;;;11.90;99.90;;;;;;5050347;28;20458;-68
2023/05/02 06:15:46;;;;;;;5.27;3.03;;;12.00;99.90;;;;;;5050102;28;20447;-70
2023/05/02 06:18:15;;;;;;;3.40;2.60;;;12.00;99.90;;;;;;5060665;28;20460;-67
2023/05/02 06:20:42;;;;;;;4.77;3.73;;;12.10;99.90;;;;;;5066361;28;20934;-68
2023/05/02 06:23:08;;;;;;;4.83;3.33;;;12.20;99.90;;;;;;5066528;28;20525;-70
2023/05/02 06:25:38;;;;;;;6.80;3.80;;;12.30;99.90;;;;;;5064576;28;20492;-69
2023/05/02 06:28:05;;;;;;;5.37;3.80;;;12.30;99.90;;;;;;5054519;28;20534;-69
2023/05/02 06:30:32;;;;;;;5.67;3.40;;;12.30;99.90;;;;;;5051418;28;20450;-69
2023/05/02 06:32:59;;;;;;;6.53;3.90;;;;;;;;;;5050694;28;20464;-68
2023/05/02 06:35:27;;;;;;;6.80;5.03;;;;;;;;;;5050451;28;20461;-69
2023/05/02 06:37:54;;;;;;;11.43;4.03;;;;;;;;;;5048993;28;20596;-68
2023/05/02 06:40:22;;;;;;;5.67;3.53;;;;;;;;;;5050670;28;20450;-68
2023/05/02 06:42:49;;;;;;;6.67;4.20;;;;;;;;;;5049515;28;20816;-68
2023/05/02 06:45:16;;;;;;;4.33;3.43;;;12.20;99.90;;;;;;5050239;28;20589;-68
2023/05/02 06:47:42;;;;;;;6.80;4.60;;;12.70;1.00;;;;;;5050239;28;20791;-68
2023/05/02 06:50:10;;;;;;;8.10;5.37;;;12.70;1.00;;;;;;5049480;28;20461;-68
2023/05/02 06:52:38;;;;;;;8.10;5.00;;;12.80;1.00;;;;;;5049056;28;20454;-68
2023/05/02 06:55:06;;;;;;;5.97;4.50;;;12.80;1.00;;;;;;5050066;28;20482;-69
2023/05/02 06:57:34;;;;;;;7.20;4.33;;;13.00;1.00;;;;;;5049725;28;20455;-68
2023/05/02 07:00:00;;;;;;;9.73;6.30;;;12.70;1.00;;;;;;5051776;28;20446;-69
2023/05/02 07:02:27;;;;;;;8.67;5.00;;;12.90;1.00;;;;;;5053892;28;20456;-70
2023/05/02 07:04:54;;;;;;;6.67;4.83;;;13.00;99.90;;;;;;5053842;28;20446;-70
2023/05/02 07:07:21;;;;;;;5.60;4.17;;;12.90;1.00;;;;;;5054017;28;20446;-70
2023/05/02 07:09:49;;;;;;;7.57;5.17;;;12.90;1.00;;;;;;5053998;28;20541;-70
2023/05/02 07:12:16;;;;;;;8.10;5.40;;;12.80;1.00;;;;;;5054893;28;20446;-70
2023/05/02 07:14:42;;;;;;;7.53;5.13;;;12.90;1.00;;;;;;5055031;28;20452;-70
2023/05/02 07:17:09;;;;;;;8.50;5.80;;;12.90;99.90;;;;;;5053079;28;20951;-69
2023/05/02 07:19:36;;;;;;;8.60;4.63;;;12.70;1.00;;;;;;5051889;28;20455;-68
2023/05/02 07:22:03;;;;;;;8.87;5.90;;;12.70;1.00;;;;;;5053708;28;20447;-69
2023/05/02 07:24:30;;;;;;;6.67;4.43;;;12.60;1.00;;;;;;5053918;28;20504;-68
2023/05/02 07:26:58;;;;;;;10.00;6.07;;;12.70;1.00;;;;;;5055045;28;20484;-68
2023/05/02 07:29:25;;;;;;;8.73;5.63;;;13.00;1.00;;;;;;5049300;28;20444;-69
2023/05/02 07:31:51;;;;;;;8.77;5.90;;;13.10;1.00;;;;;;5052258;28;20446;-69
2023/05/02 07:34:18;;;;;;;9.20;6.07;;;13.00;1.00;;;;;;5039620;28;20454;-68
2023/05/02 07:36:45;;;;;;;8.63;5.90;;;13.10;1.00;;;;;;5051787;28;20457;-68
2023/05/02 07:39:12;;;;;;;7.73;5.93;;;13.10;1.00;;;;;;5052140;28;20461;-68
2023/05/02 07:41:38;;;;;;;8.87;5.60;;;13.20;1.00;;;;;;5051479;28;20447;-68
2023/05/02 07:44:06;;;;;;;7.77;5.70;;;13.30;99.90;;;;;;5052741;28;20450;-69
2023/05/02 07:46:33;;;;;;;9.17;6.67;;;13.30;99.90;;;;;;5051708;28;20485;-67
2023/05/02 07:49:00;;;;;;;8.77;6.10;;;13.40;99.90;;;;;;5052052;28;20457;-66
2023/05/02 07:51:27;;;;;;;9.80;5.80;;;13.30;99.90;;;;;;5051959;28;20803;-67
2023/05/02 07:53:57;;;;;;;8.17;6.53;;;13.30;99.90;;;;;;5051620;28;20481;-69
2023/05/02 07:56:24;;;;;;;8.53;6.00;;;13.30;99.90;;;;;;5052614;28;20512;-70
2023/05/02 07:58:51;;;;;;;9.07;6.13;;;13.20;99.90;;;;;;5049172;28;20533;-68
2023/05/02 08:01:19;;;;;;;10.67;6.50;;;13.10;1.00;;;;;;5064968;28;20455;-66
2023/05/02 08:03:47;;;;;;;10.53;6.30;;;12.70;1.00;;;;;;5052055;28;20455;-69
2023/05/02 08:06:14;;;;;;;11.10;8.57;;;13.00;1.00;;;;;;5052305;28;21009;-67
2023/05/02 08:08:41;;;;;;;10.10;6.27;;;13.20;1.00;;;;;;5052036;28;20448;-67
2023/05/02 08:11:07;;;;;;;10.47;6.97;;;13.30;99.90;;;;;;5052386;28;20459;-67
2023/05/02 08:13:34;;;;;;;11.27;7.27;;;13.20;1.00;;;;;;5051765;28;20466;-67
2023/05/02 08:16:01;;;;;;;10.53;7.43;;;13.30;1.00;;;;;;5052204;28;20901;-67
2023/05/02 08:18:29;;;;;;;10.13;6.90;;;13.30;99.90;;;;;;5052367;28;20469;-67
2023/05/02 08:20:57;;;;;;;11.20;6.97;;;13.60;99.90;;;;;;5051889;28;20446;-68
2023/05/02 08:23:24;;;;;;;11.50;7.07;;;13.60;99.90;;;;;;5052248;28;20466;-68
2023/05/02 08:25:50;;;;;;;9.53;6.77;;;13.70;1.00;;;;;;5051674;28;20474;-68
2023/05/02 08:28:18;;;;;;;10.93;6.77;;;13.50;1.00;;;;;;5044269;28;20454;-70
2023/05/02 08:30:45;;;;;;;10.53;7.60;;;13.30;99.90;;;;;;5049692;28;20791;-68
2023/05/02 08:33:12;;;;;;;11.67;7.43;;;13.30;1.00;;;;;;5051917;28;20451;-68
2023/05/02 08:35:40;;;;;;;12.30;7.00;;;13.60;1.00;;;;;;5049387;28;21033;-68
2023/05/02 08:38:07;;;;;;;11.97;6.93;;;13.60;99.90;;;;;;5051271;28;20438;-69
2023/05/02 08:40:36;;;;;;;13.90;8.13;;;13.60;99.90;;;;;;5051464;28;20462;-69
2023/05/02 08:43:03;;;;;;;8.90;6.10;;;13.90;1.00;;;;;;5051544;28;20442;-68
2023/05/02 08:45:36;;;;;;;11.10;7.70;;;14.00;99.90;;;;;;5051598;28;20810;-68
2023/05/02 08:48:06;;;;;;;10.47;7.27;;;14.20;1.00;;;;;;5050685;28;20911;-70
2023/05/02 08:50:36;;;;;;;12.93;8.90;;;14.30;99.90;;;;;;5051293;28;20446;-68
2023/05/02 08:53:06;;;;;;;11.17;6.00;;;14.40;1.00;;;;;;5050909;28;20475;-69
2023/05/02 08:55:34;;;;;;;12.07;7.57;;;14.40;1.00;;;;;;5051583;28;20535;-71
2023/05/02 08:58:03;;;;;;;12.60;7.00;;;14.40;1.00;;;;;;5050224;28;21012;-74
2023/05/02 09:00:31;;;;;;;10.10;7.57;;;14.60;1.00;;;;;;5051557;28;20451;-68
2023/05/02 09:03:06;;;;;;;9.70;7.00;;;14.60;99.90;;;;;;5050357;28;20461;-69
2023/05/02 09:05:36;;;;;;;12.13;8.33;;;;;;;;;;5051255;28;20453;-69
2023/05/02 09:08:03;;;;;;;10.43;6.63;;;;;;;;;;5050028;28;20453;-68
2023/05/02 09:10:31;;;;;;;11.80;7.73;;;;;;;;;;5050482;28;20450;-68
2023/05/02 09:13:19;;;;;;;11.73;7.63;;;;;;;;;;5054187;28;20512;-69
2023/05/02 09:15:57;;;;;;;10.53;7.47;;;;;;;;;;5049317;28;20469;-69
2023/05/02 09:18:24;;;;;;;12.00;8.53;;;;;;;;;;5043815;28;20458;-69
2023/05/02 09:20:51;;;;;;;9.47;6.47;;;;;;;;;;5050569;28;20449;-69
2023/05/02 09:23:18;;;;;;;8.33;5.90;;;;;;;;;;5050594;28;20816;-69
2023/05/02 09:25:47;;;;;;;9.00;5.80;;;;;;;;;;5049730;28;20453;-69
2023/05/02 09:28:14;;;;;;;10.70;6.17;;;;;;;;;;5049166;28;20982;-69
2023/05/02 09:30:41;;;;;;;9.37;5.70;;;;;;;;;;5042883;28;20467;-69
2023/05/02 09:33:09;;;;;;;9.77;6.87;;;;;;;;;;5049597;28;20946;-69
2023/05/02 09:35:36;;;;;;;8.10;5.40;;;;;;;;;;5048098;28;20451;-69
2023/05/02 09:38:03;;;;;;;10.03;6.67;;;;;;;;;;5050372;28;20484;-69
2023/05/02 09:40:31;;;;;;;10.00;5.40;;;;;;;;;;5050036;28;20457;-69
2023/05/02 09:43:00;;;;;;;9.67;6.73;;;;;;;;;;5048857;28;20962;-69
2023/05/02 09:45:27;;;;;;;10.60;7.10;;;;;;;;;;5050134;28;20446;-70
2023/05/02 09:47:54;;;;;;;10.30;6.40;;;;;;;;;;5049341;28;20691;-70
2023/05/02 09:50:34;;;;;;;10.87;5.90;;;;;;;;;;5050158;28;20457;-69
2023/05/02 09:53:02;;;;;;;8.87;6.30;;;;;;;;;;5049007;28;20447;-69
2023/05/02 09:55:29;;;;;;;8.93;6.67;;;;;;;;;;5050807;28;20496;-69
2023/05/02 09:57:56;;;;;;;8.60;6.03;;;;;;;;;;5049416;28;20455;-69
2023/05/02 10:00:38;;;;;;;9.30;6.17;;;;;;;;;;5049613;28;20552;-69
2023/05/02 10:03:06;;;;;;;8.40;5.53;;;;;;;;;;5049710;28;20446;-70
2023/05/02 10:05:34;;;;;;;7.20;5.50;;;;;;;;;;5050226;28;20446;-70
2023/05/02 10:08:01;;;;;;;7.60;6.07;;;;;;;;;;5049188;28;20477;-69
2023/05/02 10:10:29;;;;;;;8.23;5.93;;;;;;;;;;5049618;28;20450;-70
2023/05/02 10:12:56;;;;;;;13.47;6.93;;;;;;;;;;5051529;28;20446;-69
2023/05/02 10:15:25;;;;;;;11.17;7.40;;;;;;;;;;5049700;28;20991;-69
2023/05/02 10:17:53;;;;;;;10.13;6.77;;;;;;;;;;5048757;28;20954;-69
2023/05/02 10:20:23;;;;;;;8.33;6.53;;;;;;;;;;5049175;28;20446;-69
2023/05/02 10:22:51;;;;;;;11.20;6.70;;;;;;;;;;5049135;28;20447;-69
2023/05/02 10:25:18;;;;;;;6.40;5.07;;;;;;;;;;5050393;28;20484;-70
2023/05/02 10:27:45;;;;;;;9.00;6.13;;;;;;;;;;5049051;28;20478;-69
2023/05/02 10:30:13;;;;;;;10.93;5.70;;;;;;;;;;5049161;28;20447;-69
2023/05/02 10:32:42;;;;;;;7.63;5.93;;;;;;;;;;5041199;28;20778;-68
2023/05/02 10:35:10;;;;;;;6.70;5.00;;;;;;;;;;5049637;28;20458;-68
2023/05/02 10:37:39;;;;;;;10.27;6.90;;;;;;;;;;5052857;28;20970;-68
2023/05/02 10:40:06;;;;;;;8.73;6.03;;;;;;;;;;5053044;28;20469;-70
2023/05/02 10:42:38;;;;;;;6.43;4.67;;;;;;;;;;5052824;28;20480;-70
2023/05/02 10:45:06;;;;;;;7.57;6.23;;;;;;;;;;5053233;28;20525;-70
2023/05/02 10:47:33;;;;;;;6.50;4.60;;;;;;;;;;5051916;28;21012;-69
2023/05/02 10:50:02;;;;;;;8.43;5.47;;;;;;;;;;5052755;28;20446;-71
2023/05/02 10:52:30;;;;;;;5.07;4.20;;;;;;;;;;5053203;28;20821;-71
2023/05/02 10:55:18;;;;;;;7.07;4.77;;;;;;;;;;5051967;28;20478;-71
2023/05/02 10:58:04;;;;;;;6.93;4.43;;;;;;;;;;5044773;28;20541;-69
2023/05/02 11:00:32;;;;;;;9.17;4.27;;;;;;;;;;5050816;28;20464;-69
2023/05/02 11:02:59;;;;;;;8.73;5.23;;;;;;;;;;5053158;28;20456;-70
2023/05/02 11:05:28;;;;;;;6.70;4.50;;;;;;;;;;5047673;28;20447;-70
2023/05/02 11:08:10;;;;;;;5.10;3.70;;;;;;;;;;5049110;28;20474;-69
2023/05/02 11:10:37;;;;;;;5.93;4.40;;;;;;;;;;5051874;28;20446;-69
2023/05/02 11:13:04;;;;;;;5.00;3.43;;;;;;;;;;5053143;28;20450;-69
2023/05/02 11:16:04;;;;;;;6.10;4.13;;;;;;;;;;5053032;28;20450;-70
2023/05/02 11:18:46;;;;;;;6.50;4.30;;;;;;;;;;5010931;28;20449;-70
2023/05/02 11:21:28;;;;;;;6.67;4.63;;;;;;;;;;5010670;28;20474;-70
2023/05/02 11:24:10;;;;;;;5.83;4.63;;;;;;;;;;5032807;28;20446;-70
2023/05/02 11:26:37;;;;;;;6.90;4.80;;;;;;;;;;5051022;28;20472;-69
2023/05/02 11:29:04;;;;;;;7.70;4.70;;;;;;;;;;5052528;28;20454;-69
2023/05/02 11:31:52;;;;;;;6.57;4.83;;;;;;;;;;5052528;28;20446;-70
2023/05/02 11:34:19;;;;;;;5.27;3.90;;;;;;;;;;5044620;28;20455;-69
2023/05/02 11:36:48;;;;;;;8.00;5.07;;;;;;;;;;5050050;28;21284;-69
2023/05/02 11:39:20;;;;;;;9.57;5.40;;;;;;;;;;5052967;28;20446;-69
2023/05/02 11:41:49;;;;;;;7.70;4.70;;;;;;;;;;5052935;28;20822;-70
2023/05/02 11:44:17;;;;;;;7.30;4.77;;;;;;;;;;5054597;28;20462;-69
2023/05/02 11:46:45;;;;;;;7.23;4.53;;;;;;;;;;5050446;28;20454;-69
2023/05/02 11:49:13;;;;;;;6.67;4.70;;;;;;;;;;5052489;28;20868;-69
2023/05/02 11:51:40;;;;;;;11.00;5.93;;;;;;;;;;5050950;28;20446;-69
2023/05/02 11:54:09;;;;;;;7.47;5.30;;;;;;;;;;5051415;28;20478;-69
2023/05/02 11:56:36;;;;;;;9.30;6.30;;;;;;;;;;5051452;28;20552;-69
2023/05/02 11:59:05;;;;;;;8.30;5.70;;;;;;;;;;5052358;28;20453;-69
2023/05/02 12:01:32;;;;;;;8.07;5.23;;;;;;;;;;5051723;28;20455;-69
2023/05/02 12:04:02;;;;;;;8.30;5.83;;;;;;;;;;5051771;28;20454;-69
2023/05/02 12:06:30;;;;;;;9.70;6.10;;;;;;;;;;5044460;28;20454;-69
2023/05/02 12:09:06;;;;;;;9.50;6.80;;;;;;;;;;5050746;28;21015;-69
2023/05/02 12:11:37;;;;;;;10.63;6.43;;;;;;;;;;5044913;28;20875;-69
2023/05/02 12:14:04;;;;;;;11.53;6.20;;;;;;;;;;5051444;28;20442;-70
2023/05/02 12:16:31;;;;;;;8.60;5.77;;;;;;;;;;5051676;28;20534;-69
2023/05/02 12:18:59;;;;;;;10.00;6.40;;;;;;;;;;5052108;28;20946;-70
2023/05/02 12:21:27;;;;;;;9.20;6.37;;;;;;;;;;5051342;28;20829;-71
2023/05/02 12:23:55;;;;;;;8.07;5.10;;;;;;;;;;5050906;28;20939;-70
2023/05/02 12:26:24;;;;;;;9.70;5.57;;;;;;;;;;5051873;28;20454;-69
2023/05/02 12:28:53;;;;;;;7.90;5.20;;;;;;;;;;5050727;28;20482;-69
2023/05/02 12:31:20;;;;;;;9.80;5.90;;;;;;;;;;5051057;28;20825;-69
2023/05/02 12:33:49;;;;;;;9.47;5.33;;;;;;;;;;5050873;28;20457;-69
2023/05/02 12:36:17;;;;;;;10.40;6.40;;;;;;;;;;5051203;28;20564;-69
2023/05/02 12:38:49;;;;;;;12.90;7.37;;;;;;;;;;5050905;28;20454;-69
2023/05/02 12:41:16;;;;;;;10.60;6.30;;;;;;;;;;5051742;28;20478;-69
2023/05/02 12:43:46;;;;;;;13.43;7.00;;;;;;;;;;5050690;28;20450;-68
2023/05/02 12:46:15;;;;;;;10.50;7.60;;;;;;;;;;5050803;28;20447;-69
2023/05/02 12:48:42;;;;;;;7.67;6.00;;;;;;;;;;5049642;28;20478;-69
2023/05/02 12:51:20;;;;;;;8.70;6.63;;;;;;;;;;5050724;28;20489;-69
2023/05/02 12:53:47;;;;;;;9.60;6.17;;;;;;;;;;5042619;28;20466;-68
2023/05/02 12:56:15;;;;;;;12.70;7.50;;;;;;;;;;5050779;28;20446;-69
2023/05/02 12:58:42;;;;;;;8.23;6.00;;;;;;;;;;5049026;28;20446;-69
2023/05/02 13:01:10;;;;;;;6.50;5.80;;;;;;;;;;5051334;28;20458;-70
2023/05/02 13:03:38;;;;;;;10.50;8.17;;;;;;;;;;5050366;28;20854;-69
2023/05/02 13:06:07;;;;;;;8.03;4.80;;;;;;;;;;5045967;28;20455;-70
2023/05/02 13:08:34;;;;;;;9.83;5.53;;;;;;;;;;5050606;28;20485;-70
2023/05/02 13:11:01;;;;;;;10.17;5.97;;;;;;;;;;5051106;28;20508;-70
2023/05/02 13:13:29;;;;;;;8.60;5.50;;;;;;;;;;5050684;28;20446;-69
2023/05/02 13:15:56;;;;;;;10.17;6.60;;;;;;;;;;5050404;28;20468;-70
2023/05/02 13:18:23;;;;;;;13.20;7.20;;;;;;;;;;5049785;28;20537;-70
2023/05/02 13:20:52;;;;;;;9.37;5.90;;;;;;;;;;5050329;28;20553;-70
2023/05/02 13:23:19;;;;;;;14.17;6.67;;;;;;;;;;5050864;28;20798;-70
2023/05/02 13:25:46;;;;;;;10.07;6.40;;;;;;;;;;5050370;28;20442;-70
2023/05/02 13:28:13;;;;;;;6.20;4.80;;;;;;;;;;5050587;28;20473;-70
2023/05/02 13:30:40;;;;;;;8.37;4.87;;;;;;;;;;5049924;28;20477;-69
2023/05/02 13:33:08;;;;;;;8.30;5.00;;;;;;;;;;5050488;28;20450;-70
2023/05/02 13:35:35;;;;;;;9.00;6.20;;;;;;;;;;5050083;28;20450;-69
2023/05/02 13:38:03;;;;;;;8.73;6.20;;;;;;;;;;5050216;28;20460;-70
2023/05/02 13:40:31;;;;;;;12.77;6.50;;;;;;;;;;5050486;28;20451;-67
2023/05/02 13:42:58;;;;;;;7.90;5.90;;;;;;;;;;5049976;28;20470;-70
2023/05/02 13:45:25;;;;;;;12.63;5.93;;;;;;;;;;5049221;28;20454;-68
2023/05/02 13:47:52;;;;;;;8.20;4.80;;;;;;;;;;5048775;28;20478;-70
2023/05/02 13:50:19;;;;;;;8.20;4.33;;;;;;;;;;5049847;28;20947;-69
2023/05/02 13:52:46;;;;;;;7.27;5.03;;;;;;;;;;5049218;28;20461;-70
2023/05/02 13:55:14;;;;;;;8.63;4.60;;;;;;;;;;5049869;28;20489;-70
2023/05/02 13:57:42;;;;;;;7.33;4.70;;;;;;;;;;5049296;28;20896;-71
2023/05/02 14:00:10;;;;;;;9.80;5.07;;;;;;;;;;5050418;28;20454;-72
2023/05/02 14:02:37;;;;;;;9.30;4.70;;;;;;;;;;5049281;28;20458;-69